Time;durP1;ratioP1;P1;durP2;ratioP2;P2;SDS_P1;SDS_P2;PMS_P1;PMS_P2;Temp;Humidity;BMP_temperature;BMP_pressure;BME280_temperature;BME280_humidity;BME280_pressure;Samples;Min_cycle;Max_cycle;Signal;HPM_P1;HPM_P2
2022/10/03 00:01:25;;;;;;;4.68;1.08;;;;;;;9.88;89.41;94679.13;5130221;28;20486;-73
2022/10/03 00:04:06;;;;;;;6.18;0.95;;;;;;;9.79;89.43;94655.91;5131040;27;20248;-74
2022/10/03 00:06:46;;;;;;;1.73;1.23;;;;;;;9.75;90.30;94665.78;5130145;28;20205;-72
2022/10/03 00:09:25;;;;;;;3.90;1.00;;;;;;;9.85;89.86;94666.22;5130091;28;20788;-72
2022/10/03 00:12:04;;;;;;;2.55;1.52;;;;;;;9.79;89.37;94656.72;5132871;27;20211;-72
2022/10/03 00:14:41;;;;;;;1.00;0.80;;;;;;;9.81;89.38;94654.47;5134650;27;20319;-74
2022/10/03 00:17:17;;;;;;;1.02;0.80;;;;;;;9.53;91.67;94648.63;5134212;27;20249;-72
2022/10/03 00:19:55;;;;;;;2.40;1.35;;;;;;;9.49;92.33;94646.88;5134788;27;20192;-73
2022/10/03 00:22:31;;;;;;;0.93;0.82;;;;;;;9.36;92.54;94631.63;5134094;27;20223;-73
2022/10/03 00:25:18;;;;;;;1.15;1.05;;;;;;;9.49;92.23;94625.25;5133825;27;20201;-73
2022/10/03 00:27:52;;;;;;;2.42;1.23;;;;;;;9.63;91.44;94625.88;5133970;27;20269;-73
2022/10/03 00:30:21;;;;;;;0.80;0.77;;;;;;;9.71;91.34;94618.84;5134172;27;20215;-74
2022/10/03 00:33:13;;;;;;;2.13;1.23;;;;;;;9.60;91.23;94626.50;5134768;27;20197;-73
2022/10/03 00:36:00;;;;;;;7.13;0.85;;;;;;;9.50;92.04;94637.66;5134310;27;20266;-74
2022/10/03 00:39:01;;;;;;;1.05;0.98;;;;;;;9.43;92.13;94634.66;5134145;27;20214;-73
2022/10/03 00:41:52;;;;;;;1.27;1.13;;;;;;;9.45;92.21;94632.41;5109672;27;20335;-74
2022/10/03 00:45:06;;;;;;;0.90;0.90;;;;;;;9.45;92.85;94646.72;5134088;27;20238;-74
2022/10/03 00:48:17;;;;;;;0.80;0.80;;;;;;;9.35;93.13;94635.44;5131429;27;20196;-74
2022/10/03 00:51:05;;;;;;;1.45;1.15;;;;;;;9.43;92.44;94642.78;5120444;27;20232;-74
2022/10/03 00:54:01;;;;;;;0.68;0.65;;;;;;;9.36;92.29;94639.75;5133064;27;20217;-72
2022/10/03 00:56:45;;;;;;;2.25;1.45;;;;;;;9.25;92.94;94648.19;5133570;27;20254;-73
2022/10/03 00:59:35;;;;;;;3.03;1.10;;;;;;;9.24;93.04;94638.47;5133398;27;20204;-74
2022/10/03 01:02:21;;;;;;;2.00;1.25;;;;;;;9.26;93.01;94638.97;5133552;27;20274;-73
2022/10/03 01:05:00;;;;;;;0.77;0.75;;;;;;;9.24;93.28;94635.78;5133175;27;20450;-74
2022/10/03 01:07:47;;;;;;;2.03;1.25;;;;;;;9.25;93.52;94631.16;5133257;27;20197;-74
2022/10/03 01:10:21;;;;;;;1.60;1.10;;;;;;;9.27;93.56;94624.34;5133230;27;20240;-72
2022/10/03 01:12:57;;;;;;;1.23;0.88;;;;;;;9.30;93.89;94627.50;5133305;27;20229;-73
2022/10/03 01:15:36;;;;;;;1.13;1.02;;;;;;;9.34;93.80;94623.84;5133248;27;20548;-73
2022/10/03 01:18:18;;;;;;;1.42;0.98;;;;;;;9.32;93.79;94622.56;5132543;27;20565;-73
2022/10/03 01:20:58;;;;;;;3.13;1.30;;;;;;;9.32;93.79;94625.25;5133184;27;20559;-73
2022/10/03 01:24:00;;;;;;;1.25;1.00;;;;;;;9.30;93.53;94627.50;5132515;27;20273;-73
2022/10/03 01:26:45;;;;;;;0.68;0.68;;;;;;;9.54;92.59;94617.00;5121078;27;20197;-74
2022/10/03 01:32:08;;;;;;;2.42;1.40;;;;;;;9.58;92.69;94607.09;5132879;27;20204;-73
2022/10/03 01:34:42;;;;;;;2.35;1.23;;;;;;;9.42;93.60;94614.16;5132998;27;20197;-73
2022/10/03 01:37:14;;;;;;;2.17;0.85;;;;;;;9.37;94.13;94606.97;5132919;27;20205;-73
2022/10/03 01:39:49;;;;;;;5.03;0.98;;;;;;;9.33;94.16;94611.44;5132736;27;20189;-74
2022/10/03 01:42:20;;;;;;;2.00;1.20;;;;;;;9.27;94.44;94610.81;5132784;27;20312;-72
2022/10/03 01:45:05;;;;;;;1.70;1.30;;;;;;;9.31;95.07;94618.28;5132447;27;20201;-73
2022/10/03 01:47:39;;;;;;;1.50;1.00;;;;;;;9.24;95.32;94614.16;5132211;27;20197;-73
2022/10/03 01:50:16;;;;;;;3.13;0.95;;;;;;;9.31;94.66;94610.16;5130481;27;20716;-73
2022/10/03 01:52:53;;;;;;;2.58;1.58;;;;;;;9.29;94.59;94605.09;5131660;27;20648;-73
2022/10/03 01:55:30;;;;;;;2.15;1.52;;;;;;;9.35;94.35;94603.81;5132107;27;20200;-73
2022/10/03 01:58:04;;;;;;;1.05;0.80;;;;;;;9.36;94.15;94610.00;5131977;27;20648;-73
2022/10/03 02:00:42;;;;;;;1.38;1.23;;;;;;;9.33;94.02;94600.63;5132288;27;20564;-73
2022/10/03 02:03:15;;;;;;;1.15;0.90;;;;;;;9.23;94.51;94601.75;5132014;27;20687;-73
2022/10/03 02:05:54;;;;;;;2.42;1.23;;;;;;;9.11;95.36;94593.50;5131931;27;20254;-73
2022/10/03 02:08:35;;;;;;;0.80;0.80;;;;;;;9.07;96.16;94603.34;5131679;27;20590;-73
2022/10/03 02:11:06;;;;;;;1.00;0.90;;;;;;;9.02;95.88;94595.38;5131176;27;20193;-73
2022/10/03 02:13:44;;;;;;;1.00;0.88;;;;;;;9.15;96.22;94594.47;5131406;27;20225;-73
2022/10/03 02:16:20;;;;;;;6.00;0.80;;;;;;;9.13;96.06;94591.28;5131864;27;20224;-73
2022/10/03 02:18:53;;;;;;;0.90;0.70;;;;;;;9.18;95.37;94596.50;5131845;27;20200;-73
2022/10/03 02:21:22;;;;;;;1.90;0.85;;;;;;;9.16;95.62;94596.03;5118481;27;20197;-74
2022/10/03 02:24:04;;;;;;;1.15;0.90;;;;;;;9.16;95.33;94593.31;5131951;27;20294;-74
2022/10/03 02:27:21;;;;;;;0.70;0.70;;;;;;;9.12;95.30;94595.09;5131193;27;20273;-74
2022/10/03 02:30:18;;;;;;;2.17;1.00;;;;;;;9.05;95.94;94594.75;5042811;28;20681;-75
2022/10/03 02:33:17;;;;;;;0.98;0.82;;;;;;;9.02;96.99;94598.09;5110420;27;20275;-73
2022/10/03 02:36:15;;;;;;;1.02;0.90;;;;;;;9.03;96.91;94602.38;5105250;27;20269;-72
2022/10/03 02:39:18;;;;;;;1.48;1.00;;;;;;;9.18;96.41;94596.50;5131875;27;20292;-72
2022/10/03 02:42:13;;;;;;;0.60;0.60;;;;;;;9.33;95.64;94594.41;5131113;27;20260;-73
2022/10/03 02:45:01;;;;;;;1.05;0.80;;;;;;;9.46;95.62;94598.84;5131461;27;20201;-73
2022/10/03 02:47:57;;;;;;;1.05;0.95;;;;;;;9.51;94.99;94585.97;5131740;27;20258;-74
2022/10/03 02:50:50;;;;;;;1.98;0.85;;;;;;;9.63;95.06;94590.72;5121780;27;20320;-72
2022/10/03 02:53:48;;;;;;;2.35;1.10;;;;;;;9.68;94.35;94589.75;5130996;27;20294;-74
2022/10/03 02:56:51;;;;;;;0.70;0.70;;;;;;;9.35;93.48;94603.00;5131225;27;20663;-74
2022/10/03 02:59:52;;;;;;;0.77;0.77;;;;;;;9.17;96.12;94597.63;5098919;27;20201;-74
2022/10/03 03:03:01;;;;;;;0.68;0.68;;;;;;;9.14;96.63;94602.88;5130895;27;20256;-74
2022/10/03 03:06:16;;;;;;;1.40;0.90;;;;;;;9.18;97.08;94596.50;5131143;27;20675;-73
2022/10/03 03:09:17;;;;;;;4.47;1.45;;;;;;;9.22;97.00;94588.56;5120793;27;20261;-73
2022/10/03 03:12:28;;;;;;;4.00;2.45;;;;;;;9.23;97.61;94585.53;5131148;27;20583;-73
2022/10/03 03:15:32;;;;;;;3.13;2.03;;;;;;;9.33;97.99;94589.00;5130982;27;20674;-73
2022/10/03 03:18:06;;;;;;;2.47;1.13;;;;;;;9.35;98.34;94590.28;5130987;27;20261;-73
2022/10/03 03:20:43;;;;;;;4.30;1.70;;;;;;;9.37;98.59;94589.97;5130623;27;20240;-73
2022/10/03 03:23:51;;;;;;;1.50;1.10;;;;;;;9.40;98.81;94592.03;5130298;27;20546;-73
2022/10/03 03:26:34;;;;;;;2.70;1.70;;;;;;;9.55;98.51;94588.84;5081846;27;20205;-74
2022/10/03 03:29:12;;;;;;;2.45;1.38;;;;;;;9.66;97.90;94576.56;5130589;27;20686;-73
2022/10/03 03:31:48;;;;;;;2.50;1.20;;;;;;;9.75;97.13;94580.00;5129871;27;20197;-73
2022/10/03 03:34:22;;;;;;;9.57;1.80;;;;;;;9.81;96.86;94583.34;5130773;27;20204;-73
2022/10/03 03:36:57;;;;;;;1.38;1.20;;;;;;;9.81;96.39;94586.84;5130552;27;20211;-73
2022/10/03 03:39:39;;;;;;;1.83;1.02;;;;;;;9.62;96.87;94587.22;5130684;27;20253;-73
2022/10/03 03:42:36;;;;;;;1.85;1.35;;;;;;;9.45;98.05;94578.34;5114578;27;20197;-73
2022/10/03 03:45:14;;;;;;;1.40;0.88;;;;;;;9.46;98.08;94574.53;5125198;27;20246;-73
2022/10/03 03:48:11;;;;;;;7.90;3.38;;;;;;;9.57;97.81;94573.06;5128639;27;20763;-74
2022/10/03 03:50:55;;;;;;;2.83;1.30;;;;;;;9.61;97.83;94574.00;5126057;27;20231;-73
2022/10/03 03:53:49;;;;;;;2.92;1.70;;;;;;;9.55;98.55;94570.69;5126815;27;20300;-74
2022/10/03 03:56:41;;;;;;;2.10;1.23;;;;;;;9.75;97.77;94563.00;5130153;27;20205;-73
2022/10/03 03:59:25;;;;;;;1.88;1.55;;;;;;;9.68;97.54;94552.69;5130692;27;20235;-73
2022/10/03 04:02:05;;;;;;;7.57;1.50;;;;;;;9.70;97.48;94561.28;5127420;28;20249;-74
2022/10/03 04:04:50;;;;;;;2.78;1.42;;;;;;;9.69;96.81;94554.28;5125208;28;20197;-73
2022/10/03 04:07:28;;;;;;;2.38;1.40;;;;;;;9.57;97.03;94551.41;5129785;28;20740;-73
2022/10/03 04:10:13;;;;;;;3.13;1.25;;;;;;;9.60;97.18;94550.78;5130146;28;20226;-74
2022/10/03 04:13:09;;;;;;;2.88;2.15;;;;;;;9.54;97.65;94562.91;5130082;27;20288;-74
2022/10/03 04:16:05;;;;;;;1.48;1.17;;;;;;;9.46;97.70;94550.19;5130082;28;20494;-73
2022/10/03 04:18:59;;;;;;;4.10;1.35;;;;;;;9.59;96.95;94554.59;5130064;28;20205;-75
2022/10/03 04:22:10;;;;;;;3.33;1.63;;;;;;;9.58;96.89;94553.00;5117641;28;20288;-74
2022/10/03 04:25:14;;;;;;;3.08;1.48;;;;;;;9.70;96.09;94555.88;5129976;28;20198;-74
2022/10/03 04:28:16;;;;;;;1.33;1.02;;;;;;;9.84;95.91;94551.00;5124942;28;20212;-74
2022/10/03 04:30:58;;;;;;;3.50;1.38;;;;;;;9.96;95.50;94547.66;5123201;28;20207;-74
2022/10/03 04:33:43;;;;;;;2.35;1.80;;;;;;;10.08;94.39;94553.16;5129300;28;20672;-74
2022/10/03 04:36:57;;;;;;;2.80;1.38;;;;;;;10.27;94.38;94550.84;5118174;28;20209;-74
2022/10/03 04:39:35;;;;;;;1.65;1.38;;;;;;;10.22;93.61;94556.47;5031408;28;20233;-74
2022/10/03 04:42:12;;;;;;;1.77;1.25;;;;;;;10.26;93.91;94551.16;5028422;28;20663;-74
2022/10/03 04:44:57;;;;;;;6.93;3.67;;;;;;;10.25;94.44;94538.78;5086998;28;20291;-74
2022/10/03 04:47:28;;;;;;;4.32;1.90;;;;;;;10.30;94.68;94541.28;5126856;28;20533;-74
2022/10/03 04:50:09;;;;;;;2.28;2.00;;;;;;;10.22;95.07;94540.22;5129005;28;20289;-74
2022/10/03 04:52:42;;;;;;;3.60;1.90;;;;;;;10.31;95.13;94542.88;5127916;27;20244;-74
2022/10/03 04:55:25;;;;;;;2.40;1.40;;;;;;;10.22;94.76;94545.63;5127270;28;20193;-73
2022/10/03 04:57:58;;;;;;;5.68;2.97;;;;;;;10.18;95.30;94550.09;5127412;27;20185;-73
2022/10/03 05:00:32;;;;;;;2.47;1.90;;;;;;;10.30;94.99;94538.56;5133094;27;20700;-73
2022/10/03 05:03:08;;;;;;;4.30;2.00;;;;;;;10.28;95.58;94538.09;5132901;27;20292;-74
2022/10/03 05:05:50;;;;;;;4.43;3.00;;;;;;;10.53;94.76;94545.25;5130876;27;20648;-74
2022/10/03 05:08:31;;;;;;;4.22;2.38;;;;;;;10.73;94.77;94537.50;5132837;27;20242;-73
2022/10/03 05:11:07;;;;;;;8.73;4.25;;;;;;;10.84;94.44;94541.38;5132003;27;20206;-74
2022/10/03 05:13:46;;;;;;;5.20;1.98;;;;;;;10.82;93.31;94535.50;5130835;27;20217;-74
2022/10/03 05:16:22;;;;;;;8.63;2.85;;;;;;;10.94;93.54;94549.91;5132788;27;20192;-74
2022/10/03 05:18:55;;;;;;;6.07;2.17;;;;;;;11.18;93.06;94538.38;5131604;27;20213;-75
2022/10/03 05:21:34;;;;;;;5.65;2.40;;;;;;;11.37;92.01;94541.38;5131761;27;20226;-75
2022/10/03 05:24:14;;;;;;;4.65;2.30;;;;;;;11.39;90.77;94547.25;5130995;27;20216;-75
2022/10/03 05:26:46;;;;;;;3.00;2.15;;;;;;;11.42;90.91;94545.81;5131661;27;20205;-74
2022/10/03 05:29:25;;;;;;;3.70;2.03;;;;;;;11.03;90.61;94530.88;5130750;27;20855;-73
2022/10/03 05:32:06;;;;;;;5.45;2.20;;;;;;;11.17;90.39;94539.50;5128934;27;20674;-73
2022/10/03 05:34:47;;;;;;;13.45;2.53;;;;;;;11.63;88.49;94532.16;5128663;27;20246;-74
2022/10/03 05:37:34;;;;;;;2.83;1.80;;;;;;;11.65;88.30;94519.06;5132528;27;20185;-73
2022/10/03 05:40:05;;;;;;;4.50;2.22;;;;;;;12.01;87.27;94516.44;5129468;27;20192;-74
2022/10/03 05:42:39;;;;;;;2.72;1.90;;;;;;;11.97;85.34;94509.31;5131562;27;20197;-73
2022/10/03 05:45:23;;;;;;;9.13;4.25;;;;;;;12.35;85.00;94498.88;5132811;27;20244;-74
2022/10/03 05:47:54;;;;;;;4.97;2.10;;;;;;;12.58;84.32;94504.59;5132431;27;20292;-73
2022/10/03 05:50:56;;;;;;;8.70;2.22;;;;;;;12.77;82.15;94499.34;5128670;27;20233;-72
2022/10/03 05:54:00;;;;;;;2.78;1.80;;;;;;;13.53;81.72;94503.81;5127228;27;20303;-71
2022/10/03 05:56:44;;;;;;;7.18;1.88;;;;;;;13.84;76.80;94502.25;5129427;27;20256;-73
2022/10/03 05:59:36;;;;;;;4.95;1.92;;;;;;;13.74;76.90;94502.78;5126281;27;20728;-74
2022/10/03 06:02:41;;;;;;;4.40;1.98;;;;;;;13.66;76.27;94506.47;5123235;27;20185;-70
2022/10/03 06:05:29;;;;;;;3.72;2.10;;;;;;;13.44;77.99;94516.00;5097975;27;20268;-73
2022/10/03 06:08:47;;;;;;;8.23;2.70;;;;;;;12.70;82.26;94526.34;5128257;27;20193;-72
2022/10/03 06:11:46;;;;;;;5.78;2.45;;;;;;;12.42;83.01;94536.34;5083782;27;20189;-74
2022/10/03 06:14:34;;;;;;;6.53;2.40;;;;;;;12.69;83.24;94530.19;5130486;27;20196;-73
2022/10/03 06:17:26;;;;;;;11.32;2.08;;;;;;;13.07;82.54;94545.25;5127677;27;20578;-72
2022/10/03 06:20:11;;;;;;;2.20;2.00;;;;;;;13.46;80.66;94541.72;5128916;27;20196;-73
2022/10/03 06:23:12;;;;;;;3.63;1.92;;;;;;;14.10;77.28;94532.47;5126633;27;20193;-76
2022/10/03 06:26:05;;;;;;;7.38;2.10;;;;;;;14.53;75.71;94534.31;5126265;27;20651;-71
2022/10/03 06:29:02;;;;;;;2.58;1.85;;;;;;;14.09;75.75;94544.53;5129825;27;20280;-71
2022/10/03 06:32:05;;;;;;;4.32;2.22;;;;;;;14.61;75.88;94529.84;5128048;27;20286;-71
2022/10/03 06:34:50;;;;;;;6.63;2.50;;;;;;;14.76;74.01;94526.25;5119471;27;20209;-71
2022/10/03 06:37:50;;;;;;;7.28;2.55;;;;;;;14.68;73.38;94516.34;5129845;27;20249;-72
2022/10/03 06:40:53;;;;;;;5.05;2.20;;;;;;;14.98;72.68;94521.28;5097776;27;20197;-72
2022/10/03 06:44:03;;;;;;;5.85;2.80;;;;;;;14.96;73.05;94524.34;5129869;27;20281;-73
2022/10/03 06:46:47;;;;;;;5.93;3.28;;;;;;;14.88;73.00;94526.16;5129976;27;20626;-72
2022/10/03 06:49:55;;;;;;;5.75;2.40;;;;;;;14.56;73.88;94544.53;5130109;27;20289;-73
2022/10/03 06:52:50;;;;;;;4.32;2.88;;;;;;;14.05;75.17;94551.84;5129300;27;20603;-71
2022/10/03 06:55:59;;;;;;;7.78;3.47;;;;;;;14.19;76.29;94546.75;5130651;27;20201;-72
2022/10/03 06:59:05;;;;;;;4.18;2.70;;;;;;;13.81;77.74;94549.25;5130233;27;20660;-71
2022/10/03 07:02:02;;;;;;;2.85;2.42;;;;;;;13.93;78.24;94557.38;5096880;27;20201;-70
2022/10/03 07:05:00;;;;;;;5.65;2.58;;;;;;;13.80;77.16;94566.75;5129349;27;20619;-74
2022/10/03 07:08:06;;;;;;;5.35;2.28;;;;;;;13.35;78.50;94567.88;5129770;27;20246;-72
2022/10/03 07:10:52;;;;;;;4.07;2.35;;;;;;;13.10;79.46;94579.94;5105494;27;20636;-73
2022/10/03 07:13:49;;;;;;;3.17;2.00;;;;;;;12.68;81.16;94593.03;5118292;27;20408;-73
2022/10/03 07:16:49;;;;;;;4.28;2.90;;;;;;;12.60;83.72;94594.72;5130171;27;20276;-74
2022/10/03 07:19:51;;;;;;;3.80;2.70;;;;;;;12.31;84.39;94598.47;5128955;27;20725;-74
2022/10/03 07:22:49;;;;;;;4.22;2.60;;;;;;;12.16;86.43;94620.09;5127627;27;20227;-72
2022/10/03 07:26:06;;;;;;;5.03;3.35;;;;;;;11.83;87.33;94634.47;5112211;27;20313;-75
2022/10/03 07:29:07;;;;;;;3.90;2.50;;;;;;;11.60;89.07;94652.25;5077889;27;20289;-74
2022/10/03 07:31:46;;;;;;;9.93;3.47;;;;;;;11.38;90.22;94646.03;5120636;27;20245;-74
2022/10/03 07:34:51;;;;;;;3.88;3.28;;;;;;;11.27;92.09;94652.97;5129264;27;20699;-75
2022/10/03 07:40:33;;;;;;;4.90;3.72;;;;;;;11.65;94.08;94639.25;5126769;27;20208;-75
2022/10/03 07:43:31;;;;;;;5.65;3.17;;;;;;;11.75;92.67;94644.28;5130341;27;20224;-76
2022/10/03 07:46:31;;;;;;;5.00;2.80;;;;;;;11.60;94.17;94652.25;5129362;27;20245;-75
2022/10/03 07:49:27;;;;;;;3.35;2.53;;;;;;;11.56;94.60;94673.81;5129806;27;20197;-80
2022/10/03 07:52:22;;;;;;;7.78;2.78;;;;;;;11.55;94.24;94671.44;5129057;27;20587;-75
2022/10/03 07:55:14;;;;;;;3.50;2.25;;;;;;;11.53;92.70;94657.41;5125463;27;20201;-74
2022/10/03 07:58:07;;;;;;;4.10;2.50;;;;;;;11.89;93.34;94654.06;5129101;27;20261;-76
2022/10/03 08:00:52;;;;;;;5.03;3.22;;;;;;;12.13;93.17;94647.91;5129563;28;20197;-75
2022/10/03 08:03:55;;;;;;;3.40;2.42;;;;;;;12.39;92.65;94651.13;5128839;28;20200;-76
2022/10/03 08:06:28;;;;;;;9.80;3.45;;;;;;;12.57;93.34;94647.06;5126191;28;20200;-75
2022/10/03 08:09:14;;;;;;;7.07;2.85;;;;;;;12.79;92.38;94654.75;5129125;28;20204;-76
2022/10/03 08:12:04;;;;;;;4.45;2.83;;;;;;;12.94;91.23;94655.19;5117753;27;20270;-75
2022/10/03 08:14:42;;;;;;;7.05;3.70;;;;;;;13.13;91.08;94652.66;5129092;27;20197;-75
2022/10/03 08:17:45;;;;;;;7.38;3.15;;;;;;;13.06;90.73;94652.44;5129733;28;20189;-75
2022/10/03 08:20:29;;;;;;;5.82;3.55;;;;;;;13.21;90.62;94649.06;5129479;28;20197;-75
2022/10/03 08:23:15;;;;;;;4.18;2.88;;;;;;;12.93;90.44;94659.84;5130037;28;20238;-76
2022/10/03 08:25:59;;;;;;;4.40;2.83;;;;;;;13.06;90.79;94660.63;5128841;27;20303;-75
2022/10/03 08:28:56;;;;;;;3.17;2.00;;;;;;;12.80;91.57;94659.06;5128834;28;20204;-75
2022/10/03 08:31:55;;;;;;;5.90;2.38;;;;;;;12.76;91.80;94660.84;5124780;28;20201;-75
2022/10/03 08:34:57;;;;;;;4.10;1.50;;;;;;;12.76;91.46;94666.28;5120962;27;20684;-75
2022/10/03 08:37:58;;;;;;;0.77;0.68;;;;;;;12.80;91.47;94661.78;5132162;27;20200;-78
2022/10/03 08:41:14;;;;;;;2.58;1.80;;;;;;;12.85;92.18;94658.00;5133067;27;20185;-77
2022/10/03 08:44:18;;;;;;;1.35;1.10;;;;;;;12.90;90.24;94659.72;5133783;27;20224;-77
2022/10/03 08:47:39;;;;;;;1.15;1.05;;;;;;;12.93;90.59;94664.47;5131887;27;20257;-77
2022/10/03 08:50:33;;;;;;;5.55;2.25;;;;;;;13.08;90.72;94669.22;5019220;28;20322;-76
2022/10/03 08:53:33;;;;;;;3.10;1.30;;;;;;;13.22;90.60;94658.81;5060931;28;20252;-75
2022/10/03 08:56:06;;;;;;;5.50;2.58;;;;;;;13.43;90.20;94667.59;5092017;28;20507;-75
2022/10/03 08:59:09;;;;;;;5.40;2.10;;;;;;;13.66;87.98;94664.38;5091328;28;20654;-77
2022/10/03 09:02:02;;;;;;;2.83;1.40;;;;;;;14.05;87.05;94665.44;5089452;28;20545;-78
2022/10/03 09:04:57;;;;;;;0.75;0.60;;;;;;;14.39;84.48;94658.53;5089798;28;20264;-75
2022/10/03 09:08:03;;;;;;;0.57;0.57;;;;;;;14.60;83.14;94664.56;5091242;28;20198;-75
2022/10/03 09:10:43;;;;;;;1.38;1.10;;;;;;;14.71;81.98;94667.56;5089733;28;20658;-77
2022/10/03 09:13:40;;;;;;;1.33;1.05;;;;;;;14.97;81.57;94662.34;5090473;28;20283;-75
2022/10/03 09:16:44;;;;;;;0.52;0.52;;;;;;;14.78;81.68;94665.78;5090030;28;20219;-75
2022/10/03 09:19:53;;;;;;;4.35;1.65;;;;;;;14.91;80.46;94666.47;5084722;28;20202;-76
2022/10/03 09:22:52;;;;;;;1.20;0.80;;;;;;;15.62;79.62;94649.75;5090633;28;20198;-77
2022/10/03 09:25:44;;;;;;;2.33;1.60;;;;;;;15.64;77.66;94652.94;5087576;28;20206;-75
2022/10/03 09:28:36;;;;;;;1.20;0.70;;;;;;;15.03;79.74;94649.22;5090349;28;21059;-75
2022/10/03 09:31:20;;;;;;;1.27;1.15;;;;;;;14.87;81.24;94655.50;5089356;28;20599;-75
2022/10/03 09:34:11;;;;;;;0.93;0.85;;;;;;;14.75;80.83;94650.13;5090522;28;20198;-76
2022/10/03 09:37:15;;;;;;;2.20;1.60;;;;;;;14.93;80.21;94650.53;5087815;28;20665;-74
2022/10/03 09:40:13;;;;;;;3.50;1.63;;;;;;;14.93;79.81;94645.88;5066620;28;20657;-75
2022/10/03 09:43:11;;;;;;;1.33;1.13;;;;;;;15.13;79.33;94643.22;5087638;28;20202;-76
2022/10/03 09:46:32;;;;;;;1.48;1.15;;;;;;;15.46;78.70;94643.53;5087360;28;20206;-74
2022/10/03 09:49:31;;;;;;;1.00;0.82;;;;;;;15.45;78.55;94649.34;4953631;28;20258;-76
2022/10/03 09:52:14;;;;;;;3.80;0.75;;;;;;;15.46;78.39;94642.75;5091058;28;20577;-74
2022/10/03 09:55:02;;;;;;;1.15;0.93;;;;;;;15.33;78.06;94653.00;5090321;28;20568;-82
2022/10/03 09:58:04;;;;;;;2.13;0.90;;;;;;;15.14;78.34;94651.03;5090878;28;20207;-72
2022/10/03 10:00:48;;;;;;;1.02;1.02;;;;;;;15.05;76.92;94649.63;5090466;28;20198;-77
2022/10/03 10:03:48;;;;;;;1.10;1.00;;;;;;;15.05;75.83;94636.00;5087931;28;20665;-75
2022/10/03 10:06:39;;;;;;;1.17;0.85;;;;;;;15.60;72.93;94630.22;5077883;28;20676;-80
2022/10/03 10:09:46;;;;;;;4.53;1.40;;;;;;;15.97;71.38;94627.06;5088564;28;20641;-76
2022/10/03 10:12:37;;;;;;;3.03;1.90;;;;;;;16.07;70.72;94631.91;5085798;28;20813;-74
2022/10/03 10:15:47;;;;;;;1.42;1.33;;;;;;;16.09;68.82;94632.34;5089944;28;20240;-74
2022/10/03 10:18:35;;;;;;;1.20;1.10;;;;;;;16.06;68.27;94645.94;5088550;28;20203;-76
2022/10/03 10:21:35;;;;;;;1.75;1.27;;;;;;;15.77;69.39;94644.59;5089824;28;20342;-74
2022/10/03 10:24:36;;;;;;;1.80;1.70;;;;;;;16.08;68.40;94632.72;5087000;28;20198;-74
2022/10/03 10:27:31;;;;;;;2.45;1.50;;;;;;;16.26;66.83;94628.38;5071234;28;20233;-73
2022/10/03 10:30:20;;;;;;;1.10;1.00;;;;;;;15.95;66.24;94629.34;5090401;28;20198;-74
2022/10/03 10:33:34;;;;;;;0.80;0.80;;;;;;;16.25;66.47;94638.50;5089657;28;20663;-73
2022/10/03 10:36:51;;;;;;;1.10;0.90;;;;;;;16.21;65.99;94637.66;5088847;28;20243;-74
2022/10/03 10:39:59;;;;;;;1.00;0.90;;;;;;;16.17;65.96;94631.31;5089780;28;20599;-75
2022/10/03 10:43:07;;;;;;;1.17;0.90;;;;;;;16.48;65.95;94637.72;5066632;28;20276;-73
2022/10/03 10:45:45;;;;;;;1.42;1.08;;;;;;;16.18;65.45;94632.91;5089352;28;20222;-73
2022/10/03 10:48:56;;;;;;;1.40;0.95;;;;;;;16.47;64.62;94642.41;5087464;28;20244;-74
2022/10/03 10:52:06;;;;;;;0.80;0.80;;;;;;;16.55;63.42;94643.31;5084592;28;20226;-74
2022/10/03 10:55:13;;;;;;;1.70;0.70;;;;;;;16.26;63.61;94640.06;5066907;28;20711;-75
2022/10/03 10:58:17;;;;;;;1.30;1.13;;;;;;;16.00;64.18;94639.97;5085351;28;20677;-73
2022/10/03 11:01:13;;;;;;;0.60;0.60;;;;;;;16.27;64.29;94636.19;5089371;28;20206;-76
2022/10/03 11:04:13;;;;;;;0.50;0.50;;;;;;;16.46;63.48;94635.34;5087519;28;20590;-77
2022/10/03 11:07:16;;;;;;;0.60;0.60;;;;;;;16.35;63.85;94646.09;5090317;28;20232;-73
2022/10/03 11:10:29;;;;;;;0.60;0.60;;;;;;;16.07;64.02;94642.84;5089307;28;20235;-78
2022/10/03 11:13:46;;;;;;;0.75;0.68;;;;;;;15.99;65.17;94635.66;5085144;28;20251;-74
2022/10/03 11:17:01;;;;;;;0.90;0.45;;;;;;;15.95;65.78;94640.28;5088649;28;20199;-72
2022/10/03 11:20:16;;;;;;;1.20;0.82;;;;;;;15.86;65.57;94636.97;5088210;28;20213;-73
2022/10/03 11:23:16;;;;;;;0.85;0.75;;;;;;;15.53;67.00;94651.09;5087739;28;20256;-73
2022/10/03 11:26:29;;;;;;;1.27;1.17;;;;;;;15.36;67.53;94646.84;5089303;28;20244;-72
2022/10/03 11:29:25;;;;;;;1.50;1.40;;;;;;;15.22;66.80;94651.97;5081890;28;20195;-72
2022/10/03 11:32:32;;;;;;;1.05;0.93;;;;;;;15.06;68.00;94643.81;5089656;28;20606;-72
2022/10/03 11:35:56;;;;;;;1.02;0.77;;;;;;;15.11;66.79;94656.41;5089050;28;20227;-74
2022/10/03 11:38:27;;;;;;;1.25;1.08;;;;;;;14.86;66.74;94655.84;5046062;28;20651;-79
2022/10/03 11:41:05;;;;;;;1.40;1.10;;;;;;;15.11;66.51;94650.94;5045443;28;20277;-71
2022/10/03 11:43:51;;;;;;;1.75;1.27;;;;;;;15.28;65.65;94631.47;5073382;28;20263;-72
2022/10/03 11:46:31;;;;;;;1.90;1.38;;;;;;;15.34;66.06;94656.53;5087501;28;20218;-74
2022/10/03 11:49:02;;;;;;;1.58;1.35;;;;;;;15.52;66.22;94644.84;5089088;27;20235;-74
2022/10/03 11:51:45;;;;;;;2.45;1.75;;;;;;;15.76;65.80;94653.94;5128691;27;20221;-73
2022/10/03 11:54:24;;;;;;;2.13;1.52;;;;;;;15.42;64.88;94639.97;5127994;27;20196;-74
2022/10/03 11:57:01;;;;;;;1.25;0.85;;;;;;;15.47;65.54;94641.59;5129433;27;20197;-73
2022/10/03 11:59:54;;;;;;;2.63;2.03;;;;;;;15.51;65.59;94631.56;5126281;27;20279;-73
2022/10/03 12:02:43;;;;;;;2.85;1.95;;;;;;;15.37;64.90;94640.22;5128230;28;20508;-72
2022/10/03 12:05:19;;;;;;;1.27;1.17;;;;;;;15.18;64.75;94602.78;5126035;28;20216;-77
2022/10/03 12:10:52;;;;;;;3.10;2.00;;;;;;;15.44;66.56;94636.88;5130154;27;20235;-74
2022/10/03 12:13:28;;;;;;;5.05;1.27;;;;;;;15.49;65.45;94629.19;5132215;27;20192;-73
2022/10/03 12:15:57;;;;;;;1.52;1.42;;;;;;;15.22;65.84;94644.59;5131631;27;20270;-77
2022/10/03 12:18:33;;;;;;;2.20;1.40;;;;;;;15.16;66.12;94637.06;5129771;27;20200;-74
2022/10/03 12:21:10;;;;;;;2.65;1.90;;;;;;;15.29;66.36;94624.88;5130934;27;20188;-72
2022/10/03 12:23:55;;;;;;;4.97;1.90;;;;;;;15.24;66.13;94628.66;5131757;27;20204;-74
2022/10/03 12:26:31;;;;;;;1.17;1.08;;;;;;;15.33;65.32;94620.25;5128887;27;20745;-73
2022/10/03 12:29:02;;;;;;;3.85;2.35;;;;;;;15.72;65.21;94625.75;5131880;27;20204;-73
2022/10/03 12:31:35;;;;;;;1.63;1.27;;;;;;;15.47;65.04;94609.63;5131177;27;20284;-82
2022/10/03 12:34:18;;;;;;;2.05;1.55;;;;;;;15.56;64.19;94615.72;5133750;27;20567;-75
2022/10/03 12:36:52;;;;;;;2.22;1.95;;;;;;;15.43;62.50;94602.53;5133585;27;20273;-73
2022/10/03 12:39:30;;;;;;;2.85;1.85;;;;;;;15.86;61.79;94604.19;5131883;27;20205;-72
2022/10/03 12:42:13;;;;;;;2.10;1.90;;;;;;;15.98;61.22;94612.25;5133649;27;20201;-74
2022/10/03 12:44:49;;;;;;;2.28;1.80;;;;;;;16.14;59.53;94607.44;5131894;27;20683;-74
2022/10/03 12:47:29;;;;;;;1.92;1.50;;;;;;;15.85;58.52;94605.34;5120283;27;20253;-78
2022/10/03 12:50:03;;;;;;;2.83;2.00;;;;;;;16.19;59.29;94615.34;5132590;27;20236;-74
2022/10/03 12:52:35;;;;;;;3.78;1.67;;;;;;;15.91;58.37;94601.94;5132807;27;20652;-73
2022/10/03 12:55:21;;;;;;;2.10;1.50;;;;;;;15.76;58.37;94626.63;5132446;27;20700;-76
2022/10/03 12:57:57;;;;;;;4.13;1.80;;;;;;;15.59;58.72;94625.91;5132094;27;20252;-74
2022/10/03 13:00:30;;;;;;;1.85;1.38;;;;;;;15.45;58.68;94622.84;5132023;27;20197;-74
2022/10/03 13:03:19;;;;;;;4.78;2.78;;;;;;;15.64;58.39;94625.63;5131625;27;20442;-76
2022/10/03 13:06:05;;;;;;;2.13;1.92;;;;;;;15.83;57.83;94616.63;5130372;27;20248;-74
2022/10/03 13:08:50;;;;;;;2.22;2.03;;;;;;;15.97;58.40;94619.66;5129541;27;20234;-73
2022/10/03 13:11:31;;;;;;;1.80;1.38;;;;;;;15.92;58.61;94624.59;5130326;27;20208;-74
2022/10/03 13:14:12;;;;;;;2.30;1.70;;;;;;;16.12;58.07;94617.19;5130127;27;20193;-75
2022/10/03 13:16:50;;;;;;;2.13;1.48;;;;;;;15.98;56.41;94623.16;5129641;27;20196;-76
2022/10/03 13:19:22;;;;;;;3.75;1.90;;;;;;;15.88;56.82;94627.25;5128809;27;20207;-74
2022/10/03 13:22:06;;;;;;;2.05;1.63;;;;;;;15.78;57.24;94621.59;5129024;27;20197;-76
2022/10/03 13:24:38;;;;;;;2.80;1.95;;;;;;;15.74;57.10;94612.53;5130987;27;20269;-80
2022/10/03 13:27:27;;;;;;;2.83;1.73;;;;;;;15.80;57.33;94622.03;5131819;27;20643;-72
2022/10/03 13:30:04;;;;;;;2.85;1.20;;;;;;;15.72;58.40;94628.47;5133024;27;20201;-72